sensor_id;sensor_type;location;lat;lon;timestamp;temperature;humidity
27266;DHT22;14766;51.380;13.762;2024-02-04T00:02:13;12.20;78.50
27266;DHT22;14766;51.380;13.762;2024-02-04T00:04:41;12.10;78.40
27266;DHT22;14766;51.380;13.762;2024-02-04T00:07:09;12.10;78.50
27266;DHT22;14766;51.380;13.762;2024-02-04T00:09:37;12.10;78.50
27266;DHT22;14766;51.380;13.762;2024-02-04T00:12:04;12.10;79.40
27266;DHT22;14766;51.380;13.762;2024-02-04T00:14:33;12.10;78.60
27266;DHT22;14766;51.380;13.762;2024-02-04T00:17:00;12.10;78.50
27266;DHT22;14766;51.380;13.762;2024-02-04T00:19:27;12.10;78.40
27266;DHT22;14766;51.380;13.762;2024-02-04T00:21:54;12.10;78.50
27266;DHT22;14766;51.380;13.762;2024-02-04T00:24:21;12.00;78.30
27266;DHT22;14766;51.380;13.762;2024-02-04T00:26:49;12.00;78.30
27266;DHT22;14766;51.380;13.762;2024-02-04T00:29:16;12.00;78.40
27266;DHT22;14766;51.380;13.762;2024-02-04T00:31:43;12.00;78.30
27266;DHT22;14766;51.380;13.762;2024-02-04T00:34:10;12.00;78.30
27266;DHT22;14766;51.380;13.762;2024-02-04T00:36:38;12.00;78.20
27266;DHT22;14766;51.380;13.762;2024-02-04T00:39:05;12.00;77.80
27266;DHT22;14766;51.380;13.762;2024-02-04T00:41:34;12.00;77.80
27266;DHT22;14766;51.380;13.762;2024-02-04T00:44:01;12.00;77.90
27266;DHT22;14766;51.380;13.762;2024-02-04T00:46:31;12.00;77.80
27266;DHT22;14766;51.380;13.762;2024-02-04T00:48:58;12.00;77.50
27266;DHT22;14766;51.380;13.762;2024-02-04T00:51:26;12.00;77.30
27266;DHT22;14766;51.380;13.762;2024-02-04T00:53:53;12.00;77.30
27266;DHT22;14766;51.380;13.762;2024-02-04T00:56:21;12.00;77.20
27266;DHT22;14766;51.380;13.762;2024-02-04T00:58:50;12.00;77.10
27266;DHT22;14766;51.380;13.762;2024-02-04T01:01:18;12.00;77.10
27266;DHT22;14766;51.380;13.762;2024-02-04T01:03:47;12.00;77.00
27266;DHT22;14766;51.380;13.762;2024-02-04T01:06:15;12.00;76.90
27266;DHT22;14766;51.380;13.762;2024-02-04T01:08:42;12.00;76.80
27266;DHT22;14766;51.380;13.762;2024-02-04T01:11:09;12.00;76.60
27266;DHT22;14766;51.380;13.762;2024-02-04T01:13:36;12.00;76.40
27266;DHT22;14766;51.380;13.762;2024-02-04T01:16:06;12.00;76.40
27266;DHT22;14766;51.380;13.762;2024-02-04T01:18:33;12.00;76.30
27266;DHT22;14766;51.380;13.762;2024-02-04T01:21:00;12.00;76.10
27266;DHT22;14766;51.380;13.762;2024-02-04T01:23:27;11.90;76.10
27266;DHT22;14766;51.380;13.762;2024-02-04T01:25:54;11.90;76.20
27266;DHT22;14766;51.380;13.762;2024-02-04T01:28:21;11.90;76.20
27266;DHT22;14766;51.380;13.762;2024-02-04T01:30:48;11.90;76.30
27266;DHT22;14766;51.380;13.762;2024-02-04T01:33:16;11.90;76.30
27266;DHT22;14766;51.380;13.762;2024-02-04T01:35:43;11.90;76.30
27266;DHT22;14766;51.380;13.762;2024-02-04T01:38:10;11.90;76.30
27266;DHT22;14766;51.380;13.762;2024-02-04T01:40:37;11.90;76.30
27266;DHT22;14766;51.380;13.762;2024-02-04T01:43:05;11.90;76.40
27266;DHT22;14766;51.380;13.762;2024-02-04T01:45:32;11.90;76.50
27266;DHT22;14766;51.380;13.762;2024-02-04T01:48:02;11.90;76.70
27266;DHT22;14766;51.380;13.762;2024-02-04T01:50:29;11.80;76.80
27266;DHT22;14766;51.380;13.762;2024-02-04T01:52:57;11.80;76.80
27266;DHT22;14766;51.380;13.762;2024-02-04T01:55:25;11.80;76.80
27266;DHT22;14766;51.380;13.762;2024-02-04T01:57:53;11.80;76.70
27266;DHT22;14766;51.380;13.762;2024-02-04T02:00:22;11.80;76.40
27266;DHT22;14766;51.380;13.762;2024-02-04T02:02:50;11.80;76.30
27266;DHT22;14766;51.380;13.762;2024-02-04T02:05:19;11.80;76.20
27266;DHT22;14766;51.380;13.762;2024-02-04T02:07:46;11.80;76.00
27266;DHT22;14766;51.380;13.762;2024-02-04T02:10:19;11.80;76.20
27266;DHT22;14766;51.380;13.762;2024-02-04T02:12:50;11.80;76.00
27266;DHT22;14766;51.380;13.762;2024-02-04T02:15:26;11.80;76.00
27266;DHT22;14766;51.380;13.762;2024-02-04T02:18:31;11.80;76.10
27266;DHT22;14766;51.380;13.762;2024-02-04T02:23:44;11.90;76.30
27266;DHT22;14766;51.380;13.762;2024-02-04T02:26:16;11.80;76.20
27266;DHT22;14766;51.380;13.762;2024-02-04T02:28:43;11.80;76.30
27266;DHT22;14766;51.380;13.762;2024-02-04T02:31:11;11.80;76.20
27266;DHT22;14766;51.380;13.762;2024-02-04T02:33:39;11.80;76.20
27266;DHT22;14766;51.380;13.762;2024-02-04T02:36:13;11.80;75.90
27266;DHT22;14766;51.380;13.762;2024-02-04T02:38:50;11.80;75.80
27266;DHT22;14766;51.380;13.762;2024-02-04T02:41:20;11.80;75.60
27266;DHT22;14766;51.380;13.762;2024-02-04T02:43:48;11.80;75.40
27266;DHT22;14766;51.380;13.762;2024-02-04T02:46:19;11.80;75.30
27266;DHT22;14766;51.380;13.762;2024-02-04T02:48:46;11.80;75.20
27266;DHT22;14766;51.380;13.762;2024-02-04T02:51:13;11.80;75.20
27266;DHT22;14766;51.380;13.762;2024-02-04T02:53:40;11.80;75.20
27266;DHT22;14766;51.380;13.762;2024-02-04T02:56:10;11.90;75.30
27266;DHT22;14766;51.380;13.762;2024-02-04T02:58:40;11.90;75.30
27266;DHT22;14766;51.380;13.762;2024-02-04T03:01:07;11.90;75.40
27266;DHT22;14766;51.380;13.762;2024-02-04T03:03:34;11.80;75.50
27266;DHT22;14766;51.380;13.762;2024-02-04T03:06:01;11.80;75.80
27266;DHT22;14766;51.380;13.762;2024-02-04T03:08:29;11.80;75.80
27266;DHT22;14766;51.380;13.762;2024-02-04T03:10:56;11.80;75.90
27266;DHT22;14766;51.380;13.762;2024-02-04T03:13:23;11.80;75.90
27266;DHT22;14766;51.380;13.762;2024-02-04T03:15:50;11.80;75.80
27266;DHT22;14766;51.380;13.762;2024-02-04T03:18:17;11.80;75.80
27266;DHT22;14766;51.380;13.762;2024-02-04T03:20:45;11.70;75.40
27266;DHT22;14766;51.380;13.762;2024-02-04T03:23:12;11.70;75.40
27266;DHT22;14766;51.380;13.762;2024-02-04T03:25:39;11.70;75.40
27266;DHT22;14766;51.380;13.762;2024-02-04T03:28:07;11.70;75.60
27266;DHT22;14766;51.380;13.762;2024-02-04T03:30:35;11.60;75.50
27266;DHT22;14766;51.380;13.762;2024-02-04T03:33:03;11.60;75.50
27266;DHT22;14766;51.380;13.762;2024-02-04T03:35:30;11.60;75.60
27266;DHT22;14766;51.380;13.762;2024-02-04T03:37:57;11.60;75.70
27266;DHT22;14766;51.380;13.762;2024-02-04T03:40:28;11.60;75.80
27266;DHT22;14766;51.380;13.762;2024-02-04T03:42:55;11.60;75.90
27266;DHT22;14766;51.380;13.762;2024-02-04T03:45:23;11.60;76.10
27266;DHT22;14766;51.380;13.762;2024-02-04T03:47:50;11.60;76.20
27266;DHT22;14766;51.380;13.762;2024-02-04T03:50:18;11.60;76.20
27266;DHT22;14766;51.380;13.762;2024-02-04T03:52:45;11.60;76.10
27266;DHT22;14766;51.380;13.762;2024-02-04T03:55:12;11.60;76.00
27266;DHT22;14766;51.380;13.762;2024-02-04T03:57:39;11.60;75.90
27266;DHT22;14766;51.380;13.762;2024-02-04T04:00:07;11.60;75.60
27266;DHT22;14766;51.380;13.762;2024-02-04T04:02:37;11.60;75.50
27266;DHT22;14766;51.380;13.762;2024-02-04T04:05:05;11.60;75.30
27266;DHT22;14766;51.380;13.762;2024-02-04T04:07:32;11.60;75.10
27266;DHT22;14766;51.380;13.762;2024-02-04T04:09:59;11.60;75.10
27266;DHT22;14766;51.380;13.762;2024-02-04T04:12:26;11.50;74.90
27266;DHT22;14766;51.380;13.762;2024-02-04T04:14:54;11.50;75.00
27266;DHT22;14766;51.380;13.762;2024-02-04T04:17:21;11.50;74.90
27266;DHT22;14766;51.380;13.762;2024-02-04T04:19:48;11.50;75.00
27266;DHT22;14766;51.380;13.762;2024-02-04T04:22:16;11.50;75.00
27266;DHT22;14766;51.380;13.762;2024-02-04T04:24:43;11.50;75.00
27266;DHT22;14766;51.380;13.762;2024-02-04T04:27:10;11.50;75.00
27266;DHT22;14766;51.380;13.762;2024-02-04T04:29:37;11.50;75.00
27266;DHT22;14766;51.380;13.762;2024-02-04T04:32:05;11.50;74.90
27266;DHT22;14766;51.380;13.762;2024-02-04T04:34:32;11.50;74.90
27266;DHT22;14766;51.380;13.762;2024-02-04T04:36:59;11.50;74.80
27266;DHT22;14766;51.380;13.762;2024-02-04T04:39:29;11.50;74.70
27266;DHT22;14766;51.380;13.762;2024-02-04T04:41:56;11.50;74.60
27266;DHT22;14766;51.380;13.762;2024-02-04T04:44:23;11.50;74.40
27266;DHT22;14766;51.380;13.762;2024-02-04T04:46:51;11.50;74.50
27266;DHT22;14766;51.380;13.762;2024-02-04T04:49:20;11.50;74.40
27266;DHT22;14766;51.380;13.762;2024-02-04T04:51:47;11.50;74.40
27266;DHT22;14766;51.380;13.762;2024-02-04T04:54:15;11.50;74.40
27266;DHT22;14766;51.380;13.762;2024-02-04T04:56:42;11.50;74.40
27266;DHT22;14766;51.380;13.762;2024-02-04T04:59:10;11.50;74.50
27266;DHT22;14766;51.380;13.762;2024-02-04T05:01:45;11.50;74.90
27266;DHT22;14766;51.380;13.762;2024-02-04T05:04:12;11.50;75.30
27266;DHT22;14766;51.380;13.762;2024-02-04T05:06:39;11.50;75.70
27266;DHT22;14766;51.380;13.762;2024-02-04T05:09:06;11.50;76.10
27266;DHT22;14766;51.380;13.762;2024-02-04T05:11:34;11.50;76.30
27266;DHT22;14766;51.380;13.762;2024-02-04T05:14:02;11.50;76.60
27266;DHT22;14766;51.380;13.762;2024-02-04T05:16:31;11.60;77.00
27266;DHT22;14766;51.380;13.762;2024-02-04T05:18:59;11.50;77.30
27266;DHT22;14766;51.380;13.762;2024-02-04T05:21:26;11.60;77.30
27266;DHT22;14766;51.380;13.762;2024-02-04T05:23:53;11.60;77.30
27266;DHT22;14766;51.380;13.762;2024-02-04T05:26:20;11.60;77.30
27266;DHT22;14766;51.380;13.762;2024-02-04T05:28:48;11.70;77.30
27266;DHT22;14766;51.380;13.762;2024-02-04T05:31:15;11.70;77.30
27266;DHT22;14766;51.380;13.762;2024-02-04T05:33:42;11.70;77.40
27266;DHT22;14766;51.380;13.762;2024-02-04T05:36:09;11.70;77.30
27266;DHT22;14766;51.380;13.762;2024-02-04T05:38:36;11.70;77.40
27266;DHT22;14766;51.380;13.762;2024-02-04T05:41:04;11.70;77.20
27266;DHT22;14766;51.380;13.762;2024-02-04T05:43:31;11.70;77.20
27266;DHT22;14766;51.380;13.762;2024-02-04T05:45:58;11.80;77.20
27266;DHT22;14766;51.380;13.762;2024-02-04T05:48:25;11.80;77.20
27266;DHT22;14766;51.380;13.762;2024-02-04T05:50:53;11.80;77.20
27266;DHT22;14766;51.380;13.762;2024-02-04T05:53:20;11.80;77.40
27266;DHT22;14766;51.380;13.762;2024-02-04T05:55:48;11.80;77.50
27266;DHT22;14766;51.380;13.762;2024-02-04T05:58:15;11.80;77.70
27266;DHT22;14766;51.380;13.762;2024-02-04T06:00:42;11.80;77.80
27266;DHT22;14766;51.380;13.762;2024-02-04T06:03:10;11.70;77.80
27266;DHT22;14766;51.380;13.762;2024-02-04T06:05:38;11.70;77.80
27266;DHT22;14766;51.380;13.762;2024-02-04T06:08:09;11.70;77.80
27266;DHT22;14766;51.380;13.762;2024-02-04T06:10:36;11.60;77.90
27266;DHT22;14766;51.380;13.762;2024-02-04T06:13:03;11.60;77.80
27266;DHT22;14766;51.380;13.762;2024-02-04T06:15:31;11.60;77.90
27266;DHT22;14766;51.380;13.762;2024-02-04T06:17:58;11.60;78.10
27266;DHT22;14766;51.380;13.762;2024-02-04T06:20:25;11.60;78.20
27266;DHT22;14766;51.380;13.762;2024-02-04T06:22:52;11.60;78.40
27266;DHT22;14766;51.380;13.762;2024-02-04T06:25:19;11.60;78.60
27266;DHT22;14766;51.380;13.762;2024-02-04T06:27:46;11.60;78.70
27266;DHT22;14766;51.380;13.762;2024-02-04T06:30:13;11.60;79.00
27266;DHT22;14766;51.380;13.762;2024-02-04T06:32:40;11.60;79.00
27266;DHT22;14766;51.380;13.762;2024-02-04T06:35:08;11.60;78.90
27266;DHT22;14766;51.380;13.762;2024-02-04T06:37:35;11.60;79.00
27266;DHT22;14766;51.380;13.762;2024-02-04T06:40:02;11.60;79.10
27266;DHT22;14766;51.380;13.762;2024-02-04T06:42:31;11.60;79.20
27266;DHT22;14766;51.380;13.762;2024-02-04T06:44:59;11.60;79.10
27266;DHT22;14766;51.380;13.762;2024-02-04T06:47:27;11.60;79.00
27266;DHT22;14766;51.380;13.762;2024-02-04T06:49:54;11.60;79.10
27266;DHT22;14766;51.380;13.762;2024-02-04T06:52:21;11.60;79.10
27266;DHT22;14766;51.380;13.762;2024-02-04T06:54:48;11.60;79.10
27266;DHT22;14766;51.380;13.762;2024-02-04T06:57:18;11.60;79.10
27266;DHT22;14766;51.380;13.762;2024-02-04T06:59:45;11.60;79.30
27266;DHT22;14766;51.380;13.762;2024-02-04T07:02:37;11.60;79.50
27266;DHT22;14766;51.380;13.762;2024-02-04T07:05:06;11.60;79.70
27266;DHT22;14766;51.380;13.762;2024-02-04T07:07:33;11.60;80.00
27266;DHT22;14766;51.380;13.762;2024-02-04T07:10:00;11.60;80.10
27266;DHT22;14766;51.380;13.762;2024-02-04T07:12:27;11.50;80.20
27266;DHT22;14766;51.380;13.762;2024-02-04T07:14:55;11.50;80.40
27266;DHT22;14766;51.380;13.762;2024-02-04T07:17:23;11.50;80.40
27266;DHT22;14766;51.380;13.762;2024-02-04T07:19:51;11.50;80.40
27266;DHT22;14766;51.380;13.762;2024-02-04T07:22:18;11.60;80.50
27266;DHT22;14766;51.380;13.762;2024-02-04T07:24:45;11.60;81.30
27266;DHT22;14766;51.380;13.762;2024-02-04T07:27:12;11.60;80.60
27266;DHT22;14766;51.380;13.762;2024-02-04T07:29:40;11.60;80.70
27266;DHT22;14766;51.380;13.762;2024-02-04T07:32:07;11.60;80.70
27266;DHT22;14766;51.380;13.762;2024-02-04T07:34:34;11.60;80.90
27266;DHT22;14766;51.380;13.762;2024-02-04T07:37:02;11.60;81.10
27266;DHT22;14766;51.380;13.762;2024-02-04T07:39:30;11.60;81.20
27266;DHT22;14766;51.380;13.762;2024-02-04T07:41:58;11.60;81.30
27266;DHT22;14766;51.380;13.762;2024-02-04T07:44:29;11.60;81.30
27266;DHT22;14766;51.380;13.762;2024-02-04T07:46:56;11.60;81.30
27266;DHT22;14766;51.380;13.762;2024-02-04T07:49:23;11.60;81.10
27266;DHT22;14766;51.380;13.762;2024-02-04T07:51:51;11.70;81.20
27266;DHT22;14766;51.380;13.762;2024-02-04T07:54:19;11.70;81.30
27266;DHT22;14766;51.380;13.762;2024-02-04T07:56:46;11.70;81.40
27266;DHT22;14766;51.380;13.762;2024-02-04T07:59:14;11.70;81.50
27266;DHT22;14766;51.380;13.762;2024-02-04T08:01:42;11.70;81.60
27266;DHT22;14766;51.380;13.762;2024-02-04T08:04:09;11.70;81.40
27266;DHT22;14766;51.380;13.762;2024-02-04T08:06:39;11.70;81.40
27266;DHT22;14766;51.380;13.762;2024-02-04T08:09:10;11.70;81.30
27266;DHT22;14766;51.380;13.762;2024-02-04T08:11:37;11.70;81.10
27266;DHT22;14766;51.380;13.762;2024-02-04T08:14:05;11.80;81.10
27266;DHT22;14766;51.380;13.762;2024-02-04T08:16:32;11.80;81.20
27266;DHT22;14766;51.380;13.762;2024-02-04T08:18:59;11.80;81.10
27266;DHT22;14766;51.380;13.762;2024-02-04T08:21:26;11.80;81.20
27266;DHT22;14766;51.380;13.762;2024-02-04T08:23:54;11.80;81.20
27266;DHT22;14766;51.380;13.762;2024-02-04T08:26:21;11.80;81.20
27266;DHT22;14766;51.380;13.762;2024-02-04T08:28:48;11.80;81.30
27266;DHT22;14766;51.380;13.762;2024-02-04T08:31:17;11.80;81.10
27266;DHT22;14766;51.380;13.762;2024-02-04T08:33:44;11.80;81.20
27266;DHT22;14766;51.380;13.762;2024-02-04T08:36:11;11.80;81.40
27266;DHT22;14766;51.380;13.762;2024-02-04T08:38:38;11.90;82.40
27266;DHT22;14766;51.380;13.762;2024-02-04T08:41:07;11.90;81.60
27266;DHT22;14766;51.380;13.762;2024-02-04T08:43:34;11.90;81.70
27266;DHT22;14766;51.380;13.762;2024-02-04T08:46:02;11.90;81.70
27266;DHT22;14766;51.380;13.762;2024-02-04T08:48:39;11.90;81.50
27266;DHT22;14766;51.380;13.762;2024-02-04T08:51:15;11.90;81.20
27266;DHT22;14766;51.380;13.762;2024-02-04T08:53:45;11.90;80.70
27266;DHT22;14766;51.380;13.762;2024-02-04T08:56:12;11.90;80.30
27266;DHT22;14766;51.380;13.762;2024-02-04T08:58:39;12.00;80.00
27266;DHT22;14766;51.380;13.762;2024-02-04T09:01:07;12.00;79.70
27266;DHT22;14766;51.380;13.762;2024-02-04T09:03:35;12.00;79.40
27266;DHT22;14766;51.380;13.762;2024-02-04T09:06:05;12.00;79.30
27266;DHT22;14766;51.380;13.762;2024-02-04T09:08:35;12.00;79.20
27266;DHT22;14766;51.380;13.762;2024-02-04T09:11:02;12.00;79.00
27266;DHT22;14766;51.380;13.762;2024-02-04T09:13:29;12.10;78.90
27266;DHT22;14766;51.380;13.762;2024-02-04T09:15:57;12.10;78.80
27266;DHT22;14766;51.380;13.762;2024-02-04T09:18:26;12.10;78.70
27266;DHT22;14766;51.380;13.762;2024-02-04T09:20:56;12.10;78.60
27266;DHT22;14766;51.380;13.762;2024-02-04T09:23:25;12.20;78.70
27266;DHT22;14766;51.380;13.762;2024-02-04T09:25:52;12.10;78.20
27266;DHT22;14766;51.380;13.762;2024-02-04T09:28:19;12.20;78.20
27266;DHT22;14766;51.380;13.762;2024-02-04T09:30:47;12.20;78.10
27266;DHT22;14766;51.380;13.762;2024-02-04T09:33:14;12.20;78.00
27266;DHT22;14766;51.380;13.762;2024-02-04T09:35:41;12.20;77.70
27266;DHT22;14766;51.380;13.762;2024-02-04T09:38:09;12.20;77.70
27266;DHT22;14766;51.380;13.762;2024-02-04T09:40:40;12.20;77.30
27266;DHT22;14766;51.380;13.762;2024-02-04T09:43:07;12.20;77.30
27266;DHT22;14766;51.380;13.762;2024-02-04T09:45:37;12.20;77.40
27266;DHT22;14766;51.380;13.762;2024-02-04T09:48:06;12.20;77.40
27266;DHT22;14766;51.380;13.762;2024-02-04T09:50:35;12.20;77.20
27266;DHT22;14766;51.380;13.762;2024-02-04T09:53:03;12.20;77.10
27266;DHT22;14766;51.380;13.762;2024-02-04T09:55:38;12.20;77.30
27266;DHT22;14766;51.380;13.762;2024-02-04T09:58:07;12.20;77.50
27266;DHT22;14766;51.380;13.762;2024-02-04T10:00:35;12.20;77.60
27266;DHT22;14766;51.380;13.762;2024-02-04T10:03:04;12.20;78.10
27266;DHT22;14766;51.380;13.762;2024-02-04T10:05:31;12.20;77.80
27266;DHT22;14766;51.380;13.762;2024-02-04T10:07:59;12.20;77.90
27266;DHT22;14766;51.380;13.762;2024-02-04T10:10:26;12.20;78.20
27266;DHT22;14766;51.380;13.762;2024-02-04T10:12:56;12.20;78.30
27266;DHT22;14766;51.380;13.762;2024-02-04T10:15:30;12.20;78.70
27266;DHT22;14766;51.380;13.762;2024-02-04T10:17:58;12.20;78.60
27266;DHT22;14766;51.380;13.762;2024-02-04T10:20:25;12.20;78.80
27266;DHT22;14766;51.380;13.762;2024-02-04T10:22:52;12.20;78.80
27266;DHT22;14766;51.380;13.762;2024-02-04T10:25:20;12.20;78.90
27266;DHT22;14766;51.380;13.762;2024-02-04T10:27:47;12.20;78.90
27266;DHT22;14766;51.380;13.762;2024-02-04T10:30:15;12.30;79.00
27266;DHT22;14766;51.380;13.762;2024-02-04T10:32:42;12.30;79.00
27266;DHT22;14766;51.380;13.762;2024-02-04T10:35:10;12.30;78.70
27266;DHT22;14766;51.380;13.762;2024-02-04T10:37:37;12.30;78.60
27266;DHT22;14766;51.380;13.762;2024-02-04T10:40:04;12.30;78.30
27266;DHT22;14766;51.380;13.762;2024-02-04T10:42:32;12.30;78.10
27266;DHT22;14766;51.380;13.762;2024-02-04T10:45:00;12.40;77.80
27266;DHT22;14766;51.380;13.762;2024-02-04T10:47:32;12.40;77.70
27266;DHT22;14766;51.380;13.762;2024-02-04T10:50:02;12.40;77.00
27266;DHT22;14766;51.380;13.762;2024-02-04T10:52:36;12.40;77.00
27266;DHT22;14766;51.380;13.762;2024-02-04T10:55:07;12.40;77.20
27266;DHT22;14766;51.380;13.762;2024-02-04T10:57:38;12.50;77.20
27266;DHT22;14766;51.380;13.762;2024-02-04T11:00:08;12.50;76.90
27266;DHT22;14766;51.380;13.762;2024-02-04T11:02:39;12.60;77.00
27266;DHT22;14766;51.380;13.762;2024-02-04T11:05:08;12.60;76.50
27266;DHT22;14766;51.380;13.762;2024-02-04T11:07:36;12.60;76.30
27266;DHT22;14766;51.380;13.762;2024-02-04T11:10:04;12.70;76.50
27266;DHT22;14766;51.380;13.762;2024-02-04T11:12:35;12.70;76.20
27266;DHT22;14766;51.380;13.762;2024-02-04T11:15:09;12.70;75.70
27266;DHT22;14766;51.380;13.762;2024-02-04T11:25:54;12.70;75.60
27266;DHT22;14766;51.380;13.762;2024-02-04T11:28:26;12.70;75.70
27266;DHT22;14766;51.380;13.762;2024-02-04T11:30:54;12.70;75.60
27266;DHT22;14766;51.380;13.762;2024-02-04T11:33:23;12.80;75.80
27266;DHT22;14766;51.380;13.762;2024-02-04T11:38:32;12.70;76.30
27266;DHT22;14766;51.380;13.762;2024-02-04T11:41:04;12.70;76.70
27266;DHT22;14766;51.380;13.762;2024-02-04T11:43:38;12.70;77.00
27266;DHT22;14766;51.380;13.762;2024-02-04T11:46:16;12.70;77.40
27266;DHT22;14766;51.380;13.762;2024-02-04T11:48:54;12.70;77.40
27266;DHT22;14766;51.380;13.762;2024-02-04T11:51:22;12.80;77.60
27266;DHT22;14766;51.380;13.762;2024-02-04T11:53:54;12.80;77.70
27266;DHT22;14766;51.380;13.762;2024-02-04T11:56:24;12.80;78.00
27266;DHT22;14766;51.380;13.762;2024-02-04T11:58:51;12.80;77.70
27266;DHT22;14766;51.380;13.762;2024-02-04T12:01:23;12.80;77.60
27266;DHT22;14766;51.380;13.762;2024-02-04T12:03:51;12.80;77.40
27266;DHT22;14766;51.380;13.762;2024-02-04T12:06:19;12.80;77.40
27266;DHT22;14766;51.380;13.762;2024-02-04T12:08:47;12.80;77.60
27266;DHT22;14766;51.380;13.762;2024-02-04T12:11:14;12.80;77.70
27266;DHT22;14766;51.380;13.762;2024-02-04T12:13:43;12.80;77.70
27266;DHT22;14766;51.380;13.762;2024-02-04T12:16:12;12.80;77.80
27266;DHT22;14766;51.380;13.762;2024-02-04T12:18:48;12.80;77.90
27266;DHT22;14766;51.380;13.762;2024-02-04T12:21:16;12.80;78.00
27266;DHT22;14766;51.380;13.762;2024-02-04T12:23:43;12.80;78.30
27266;DHT22;14766;51.380;13.762;2024-02-04T12:26:10;12.80;78.30
27266;DHT22;14766;51.380;13.762;2024-02-04T12:28:42;12.70;78.40
27266;DHT22;14766;51.380;13.762;2024-02-04T12:31:20;12.70;78.40
27266;DHT22;14766;51.380;13.762;2024-02-04T12:33:58;12.60;78.00
27266;DHT22;14766;51.380;13.762;2024-02-04T12:36:32;12.60;77.60
27266;DHT22;14766;51.380;13.762;2024-02-04T12:39:01;12.50;77.80
27266;DHT22;14766;51.380;13.762;2024-02-04T12:41:30;12.50;77.60
27266;DHT22;14766;51.380;13.762;2024-02-04T12:43:59;12.40;77.20
27266;DHT22;14766;51.380;13.762;2024-02-04T12:46:28;12.40;77.10
27266;DHT22;14766;51.380;13.762;2024-02-04T12:48:58;12.40;76.80
27266;DHT22;14766;51.380;13.762;2024-02-04T12:51:33;12.40;76.80
27266;DHT22;14766;51.380;13.762;2024-02-04T12:59:11;12.30;76.60
27266;DHT22;14766;51.380;13.762;2024-02-04T13:01:39;12.30;76.50
27266;DHT22;14766;51.380;13.762;2024-02-04T13:04:07;12.30;76.20
27266;DHT22;14766;51.380;13.762;2024-02-04T13:06:40;12.30;75.60
27266;DHT22;14766;51.380;13.762;2024-02-04T13:09:09;12.20;75.20
27266;DHT22;14766;51.380;13.762;2024-02-04T13:11:40;12.20;75.20
27266;DHT22;14766;51.380;13.762;2024-02-04T13:14:07;12.30;75.30
27266;DHT22;14766;51.380;13.762;2024-02-04T13:16:35;12.20;74.80
27266;DHT22;14766;51.380;13.762;2024-02-04T13:19:06;12.30;75.10
27266;DHT22;14766;51.380;13.762;2024-02-04T13:21:35;12.30;74.70
27266;DHT22;14766;51.380;13.762;2024-02-04T13:24:02;12.30;74.60
27266;DHT22;14766;51.380;13.762;2024-02-04T13:26:29;12.30;73.80
27266;DHT22;14766;51.380;13.762;2024-02-04T13:28:56;12.30;73.80
27266;DHT22;14766;51.380;13.762;2024-02-04T13:31:24;12.30;74.40
27266;DHT22;14766;51.380;13.762;2024-02-04T13:33:54;12.30;73.70
27266;DHT22;14766;51.380;13.762;2024-02-04T13:36:22;12.30;73.70
27266;DHT22;14766;51.380;13.762;2024-02-04T13:38:49;12.30;74.50
27266;DHT22;14766;51.380;13.762;2024-02-04T13:41:16;12.30;73.40
27266;DHT22;14766;51.380;13.762;2024-02-04T13:43:43;12.30;73.40
27266;DHT22;14766;51.380;13.762;2024-02-04T13:46:11;12.30;73.40
27266;DHT22;14766;51.380;13.762;2024-02-04T13:48:39;12.30;73.30
27266;DHT22;14766;51.380;13.762;2024-02-04T13:51:06;12.30;72.80
27266;DHT22;14766;51.380;13.762;2024-02-04T13:53:33;12.30;72.80
27266;DHT22;14766;51.380;13.762;2024-02-04T13:56:02;12.30;72.60
27266;DHT22;14766;51.380;13.762;2024-02-04T13:58:29;12.30;72.70
27266;DHT22;14766;51.380;13.762;2024-02-04T14:00:56;12.30;73.30
27266;DHT22;14766;51.380;13.762;2024-02-04T14:03:24;12.30;72.80
27266;DHT22;14766;51.380;13.762;2024-02-04T14:05:51;12.30;72.80
27266;DHT22;14766;51.380;13.762;2024-02-04T14:08:20;12.30;72.60
27266;DHT22;14766;51.380;13.762;2024-02-04T14:10:47;12.30;72.40
27266;DHT22;14766;51.380;13.762;2024-02-04T14:13:14;12.30;72.40
27266;DHT22;14766;51.380;13.762;2024-02-04T14:15:41;12.30;72.40
27266;DHT22;14766;51.380;13.762;2024-02-04T14:18:09;12.20;72.20
27266;DHT22;14766;51.380;13.762;2024-02-04T14:20:36;12.20;71.90
27266;DHT22;14766;51.380;13.762;2024-02-04T14:23:03;12.20;72.00
27266;DHT22;14766;51.380;13.762;2024-02-04T14:25:31;12.20;72.00
27266;DHT22;14766;51.380;13.762;2024-02-04T14:27:58;12.20;71.40
27266;DHT22;14766;51.380;13.762;2024-02-04T14:30:27;12.20;71.60
27266;DHT22;14766;51.380;13.762;2024-02-04T14:32:54;12.20;71.70
27266;DHT22;14766;51.380;13.762;2024-02-04T14:35:21;12.20;71.80
27266;DHT22;14766;51.380;13.762;2024-02-04T14:37:49;12.20;71.80
27266;DHT22;14766;51.380;13.762;2024-02-04T14:40:16;12.20;72.00
27266;DHT22;14766;51.380;13.762;2024-02-04T14:42:43;12.20;71.90
27266;DHT22;14766;51.380;13.762;2024-02-04T14:45:10;12.20;72.10
27266;DHT22;14766;51.380;13.762;2024-02-04T14:47:38;12.20;71.90
27266;DHT22;14766;51.380;13.762;2024-02-04T14:50:06;12.20;71.80
27266;DHT22;14766;51.380;13.762;2024-02-04T14:52:33;12.20;71.70
27266;DHT22;14766;51.380;13.762;2024-02-04T14:55:00;12.20;71.50
27266;DHT22;14766;51.380;13.762;2024-02-04T14:57:30;12.20;71.60
27266;DHT22;14766;51.380;13.762;2024-02-04T14:59:57;12.20;71.60
27266;DHT22;14766;51.380;13.762;2024-02-04T15:02:24;12.20;71.70
27266;DHT22;14766;51.380;13.762;2024-02-04T15:04:51;12.20;71.60
27266;DHT22;14766;51.380;13.762;2024-02-04T15:07:19;12.20;71.40
27266;DHT22;14766;51.380;13.762;2024-02-04T15:09:47;12.20;70.80
27266;DHT22;14766;51.380;13.762;2024-02-04T15:12:15;12.20;70.30
27266;DHT22;14766;51.380;13.762;2024-02-04T15:14:43;12.20;70.00
27266;DHT22;14766;51.380;13.762;2024-02-04T15:17:10;12.20;69.90
27266;DHT22;14766;51.380;13.762;2024-02-04T15:19:39;12.20;69.70
27266;DHT22;14766;51.380;13.762;2024-02-04T15:22:07;12.20;69.60
27266;DHT22;14766;51.380;13.762;2024-02-04T15:24:34;12.20;69.50
27266;DHT22;14766;51.380;13.762;2024-02-04T15:27:01;12.10;69.60
27266;DHT22;14766;51.380;13.762;2024-02-04T15:29:36;12.10;69.10
27266;DHT22;14766;51.380;13.762;2024-02-04T15:32:05;12.10;69.10
27266;DHT22;14766;51.380;13.762;2024-02-04T15:34:32;12.10;68.40
27266;DHT22;14766;51.380;13.762;2024-02-04T15:37:04;12.10;68.10
27266;DHT22;14766;51.380;13.762;2024-02-04T15:39:34;12.10;68.20
27266;DHT22;14766;51.380;13.762;2024-02-04T15:42:04;12.10;67.80